Sheridan, WY

4:37 PM MDT on October 25, 2014 (GMT -0600)
KWYSHERI2 | Change Station
CLOSE
Current Station
Personal Weather Station
Location: Sheridan, WY
Elevation: 3828 ft
Nearby Weather Stations

Elev 3828 ft 44.81 °N, 106.98 °W | Updated 5 minutes ago

Clear
Clear
74.7 °F
Feels Like 76 °F
N
1.0
Wind Variable Wind from WNW
Gusts 1.0 mph

Today
High -- | Low -- °F
--% Chance of Precip.
Yesterday
High -- | Low -- °F
Precip. -- in
7:36 AM 6:06 PM
Waxing Crescent, 4% visible
Pressure 29.82 in
Visibility 10.0 miles
Clouds Clear
Heat Index 76 °F
Dew Point 33 °F
Humidity 22%
Rainfall 0.00 in
Snow Depth 0 in
UV 1 out of 12
Pollen 1.70 out of 12
Air Quality Not available.
Flu Activity Sporadic
METAR KSHR 252153Z AUTO 33006KT 10SM CLR 23/02 A2985 RMK AO2 SLP097 T02280017 TSNO

More Conditions Fewer Conditions

Pressure 29.82 in
Visibility 10.0 miles
Clouds Clear
Heat Index 76 °F
Dew Point 33 °F
Humidity 22%
Rainfall 0.00 in
Snow Depth 0 in
UV 1 out of 12
Pollen 1.70 out of 12
Air Quality Not available.
Flu Activity Sporadic
METAR KSHR 252153Z AUTO 33006KT 10SM CLR 23/02 A2985 RMK AO2 SLP097 T02280017 TSNO

More Conditions Fewer Conditions

10-Day Weather Forecast

Almanac

Astronomy

Oct. 25, 2014 Rise Set
Actual Time 7:36 AM MDT 6:06 PM MDT
Civil Twilight 7:06 AM MDT 6:36 PM MDT
Nautical Twilight 6:32 AM MDT 7:10 PM MDT
Astronomical Twilight 5:58 AM MDT 7:44 PM MDT
Moon 9:21 AM MDT 7:28 PM MDT
Length of Visible Light 11h 30m
Length of Day
10h 30m
Tomorrow will be 2m 52s shorter.
Waxing Crescent, 4% of the Moon is Illuminated
Today
Waxing Crescent
Oct 30
First Quarter
Nov 6
Full
Nov 14
Last Quarter
Nov 22
New

Today's Extremes

State Highs State Lows

Community

WunderPhotos

Upload Photos

1,765,016 photos uploaded!

Nearby

Snow Depth

Station Depth Elevation
Big Goose 0 in 7990 ft
Burgess Junction 0 in 7880 ft
Shell Creek 0 in 9580 ft
Bone Springs Divide 0 in 9350 ft
Middle Powder 1 in 7760 ft

Earthquake Activity

City Distance Mag. Time & Date
No recent earthquake activity has been reported nearby.
Minimum magnitude displayed is 2.5.

Coastal Water Temperatures

Place Temperature
No Stations Reporting

Nearby Weather Stations